createdAt,value
2019-04-04T00:00:29.677Z,0.00
2019-04-04T00:01:29.662Z,0.00
2019-04-04T00:02:29.642Z,0.00
2019-04-04T00:03:29.619Z,0.00
2019-04-04T00:04:29.607Z,0.00
2019-04-04T00:05:29.581Z,0.00
2019-04-04T00:07:12.094Z,0.00
2019-04-04T00:08:12.076Z,0.00
2019-04-04T00:09:12.068Z,0.00
2019-04-04T00:10:12.036Z,0.00
2019-04-04T00:11:12.021Z,0.00
2019-04-04T00:12:11.999Z,0.00
2019-04-04T00:13:11.995Z,0.00
2019-04-04T00:14:13.044Z,0.00
2019-04-04T00:15:12.960Z,0.00
2019-04-04T00:16:11.933Z,0.00
2019-04-04T00:17:11.917Z,0.00
2019-04-04T00:18:11.893Z,0.00
2019-04-04T00:19:11.886Z,0.00
2019-04-04T00:20:11.873Z,0.00
2019-04-04T00:21:11.842Z,0.00
2019-04-04T00:22:11.822Z,0.00
2019-04-04T00:23:11.809Z,0.00
2019-04-04T00:24:11.781Z,0.00
2019-04-04T00:25:11.762Z,0.00
2019-04-04T00:26:11.747Z,0.00
2019-04-04T00:27:13.752Z,0.00
2019-04-04T00:28:12.964Z,0.00
2019-04-04T00:29:11.699Z,0.00
2019-04-04T00:30:11.673Z,0.00
2019-04-04T00:31:11.651Z,0.00
2019-04-04T00:32:11.638Z,0.00
2019-04-04T00:33:11.617Z,0.00
2019-04-04T00:34:13.715Z,0.00
2019-04-04T00:35:11.580Z,0.00
2019-04-04T00:36:11.563Z,0.00
2019-04-04T00:37:11.550Z,0.00
2019-04-04T00:38:11.527Z,0.00
2019-04-04T00:39:11.509Z,0.00
2019-04-04T00:40:11.845Z,0.00
2019-04-04T00:41:12.980Z,0.00
2019-04-04T00:42:11.451Z,0.00
2019-04-04T00:43:11.440Z,0.00
2019-04-04T00:44:11.415Z,0.00
2019-04-04T00:45:11.397Z,0.00
2019-04-04T00:46:11.377Z,0.00
2019-04-04T00:47:11.359Z,0.00
2019-04-04T00:48:11.343Z,0.00
2019-04-04T00:49:11.323Z,0.00
2019-04-04T00:50:11.304Z,0.00
2019-04-04T00:51:11.283Z,0.00
2019-04-04T00:52:11.265Z,0.00
2019-04-04T00:53:11.772Z,0.00
2019-04-04T00:54:13.712Z,0.00
2019-04-04T00:55:11.207Z,0.00
2019-04-04T00:56:11.189Z,0.00
2019-04-04T00:57:11.171Z,0.00
2019-04-04T00:58:11.152Z,0.00
2019-04-04T00:59:11.137Z,0.00
2019-04-04T01:00:11.115Z,0.00
2019-04-04T01:01:11.096Z,0.00
2019-04-04T01:02:11.077Z,0.00
2019-04-04T01:03:11.061Z,0.00
2019-04-04T01:04:11.046Z,0.00
2019-04-04T01:05:11.021Z,0.00
2019-04-04T01:06:11.013Z,0.00
2019-04-04T01:07:10.985Z,0.00
2019-04-04T01:08:10.967Z,0.00
2019-04-04T01:09:13.306Z,0.00
2019-04-04T01:10:10.926Z,0.00
2019-04-04T01:11:10.909Z,0.00
2019-04-04T01:12:10.893Z,0.00
2019-04-04T01:13:10.871Z,0.00
2019-04-04T01:14:10.854Z,0.00
2019-04-04T01:15:10.831Z,0.00
2019-04-04T01:16:10.817Z,0.00
2019-04-04T01:17:10.803Z,0.00
2019-04-04T01:18:10.779Z,0.00
2019-04-04T01:19:10.755Z,0.00
2019-04-04T01:20:10.737Z,0.00
2019-04-04T01:21:10.723Z,0.00
2019-04-04T01:22:10.703Z,0.00
2019-04-04T01:23:10.686Z,0.00
2019-04-04T01:24:10.663Z,0.00
2019-04-04T01:25:10.643Z,0.00
2019-04-04T01:26:10.627Z,0.00
2019-04-04T01:27:10.605Z,0.00
2019-04-04T01:28:10.583Z,0.00
2019-04-04T01:29:11.130Z,0.00
2019-04-04T01:30:12.580Z,0.00
2019-04-04T01:31:10.529Z,0.00
2019-04-04T01:32:10.510Z,0.00
2019-04-04T01:33:10.493Z,0.00
2019-04-04T01:34:10.475Z,0.00
2019-04-04T01:35:10.451Z,0.00
2019-04-04T01:36:10.445Z,0.00
2019-04-04T01:37:10.416Z,0.00
2019-04-04T01:38:10.397Z,0.00
2019-04-04T01:39:10.373Z,0.00
2019-04-04T01:40:10.370Z,0.00
2019-04-04T01:41:10.345Z,0.00
2019-04-04T01:42:10.327Z,0.00
2019-04-04T01:43:10.303Z,0.00
2019-04-04T01:44:11.371Z,0.00
2019-04-04T01:45:12.765Z,0.00
2019-04-04T01:46:10.248Z,0.00
2019-04-04T01:47:10.248Z,0.00
2019-04-04T01:48:10.210Z,0.00
2019-04-04T01:49:10.188Z,0.00
2019-04-04T01:50:10.171Z,0.00
2019-04-04T01:51:10.149Z,0.00
2019-04-04T01:52:10.131Z,0.00
2019-04-04T01:53:10.110Z,0.00
2019-04-04T01:54:10.088Z,0.00
2019-04-04T01:55:10.074Z,0.00
2019-04-04T01:56:10.056Z,0.00
2019-04-04T01:57:10.038Z,0.00
2019-04-04T01:58:10.732Z,0.00
2019-04-04T01:59:10.247Z,0.00
2019-04-04T02:00:09.978Z,0.00
2019-04-04T02:01:09.961Z,0.00
2019-04-04T02:02:09.936Z,0.00
2019-04-04T02:03:09.929Z,0.00
2019-04-04T02:04:09.900Z,0.00
2019-04-04T02:05:09.882Z,0.00
2019-04-04T02:06:09.866Z,0.00
2019-04-04T02:07:09.845Z,0.00
2019-04-04T02:08:09.820Z,0.00
2019-04-04T02:09:09.810Z,0.00
2019-04-04T02:10:09.782Z,0.00
2019-04-04T02:11:09.763Z,0.00
2019-04-04T02:12:09.744Z,0.00
2019-04-04T02:13:10.429Z,0.00
2019-04-04T02:14:11.547Z,0.00
2019-04-04T02:15:09.690Z,0.00
2019-04-04T02:16:09.703Z,0.00
2019-04-04T02:17:09.650Z,0.00
2019-04-04T02:18:09.631Z,0.00
2019-04-04T02:19:09.621Z,0.00
2019-04-04T02:20:09.590Z,0.00
2019-04-04T02:21:09.574Z,0.00
2019-04-04T02:22:09.552Z,0.00
2019-04-04T02:23:09.547Z,0.00
2019-04-04T02:24:09.518Z,0.00
2019-04-04T02:25:09.533Z,0.00
2019-04-04T02:26:09.474Z,0.00
2019-04-04T02:27:09.469Z,0.00
2019-04-04T02:28:09.612Z,0.00
2019-04-04T02:29:11.099Z,0.00
2019-04-04T02:30:14.640Z,0.00
2019-04-04T02:31:09.380Z,0.00
2019-04-04T02:32:09.389Z,0.00
2019-04-04T02:33:09.341Z,0.00
2019-04-04T02:34:09.325Z,0.00
2019-04-04T02:35:10.776Z,0.00
2019-04-04T02:36:09.285Z,0.00
2019-04-04T02:37:09.263Z,0.00
2019-04-04T02:38:09.240Z,0.00
2019-04-04T02:39:09.229Z,0.00
2019-04-04T02:40:10.067Z,0.00
2019-04-04T02:41:09.185Z,0.00
2019-04-04T02:42:09.168Z,0.00
2019-04-04T02:43:09.155Z,0.00
2019-04-04T02:44:09.124Z,0.00
2019-04-04T02:45:09.135Z,0.00
2019-04-04T02:46:11.570Z,0.00
2019-04-04T02:47:09.067Z,0.00
2019-04-04T02:48:09.048Z,0.00
2019-04-04T02:49:09.036Z,0.00
2019-04-04T02:50:09.018Z,0.00
2019-04-04T02:51:08.993Z,0.00
2019-04-04T02:52:12.807Z,0.00
2019-04-04T02:53:08.953Z,0.00
2019-04-04T02:54:08.934Z,0.00
2019-04-04T02:55:08.913Z,0.00
2019-04-04T02:56:08.901Z,0.00
2019-04-04T02:57:09.641Z,0.00
2019-04-04T02:58:08.850Z,0.00
2019-04-04T02:59:08.836Z,0.00
2019-04-04T03:00:08.811Z,0.00
2019-04-04T03:01:08.793Z,0.00
2019-04-04T03:02:08.774Z,0.00
2019-04-04T03:03:09.465Z,0.00
2019-04-04T03:04:08.737Z,0.00
2019-04-04T03:05:08.717Z,0.00
2019-04-04T03:06:08.695Z,0.00
2019-04-04T03:07:08.675Z,0.00
2019-04-04T03:08:08.658Z,0.00
2019-04-04T03:09:09.946Z,0.00
2019-04-04T03:10:08.619Z,0.00
2019-04-04T03:11:08.599Z,0.00
2019-04-04T03:12:08.584Z,0.00
2019-04-04T03:13:08.569Z,0.00
2019-04-04T03:14:08.543Z,0.00
2019-04-04T03:15:09.234Z,0.00
2019-04-04T03:16:08.507Z,0.00
2019-04-04T03:17:08.486Z,0.00
2019-04-04T03:18:08.477Z,0.00
2019-04-04T03:19:11.063Z,0.00
2019-04-04T03:20:08.420Z,0.00
2019-04-04T03:21:08.402Z,0.00
2019-04-04T03:22:08.386Z,0.00
2019-04-04T03:23:08.374Z,0.00
2019-04-04T03:24:08.361Z,0.00
2019-04-04T03:25:08.334Z,0.00
2019-04-04T03:26:08.305Z,0.00
2019-04-04T03:27:08.282Z,0.00
2019-04-04T03:28:08.271Z,0.00
2019-04-04T03:29:10.465Z,0.00
2019-04-04T03:30:13.398Z,0.00
2019-04-04T03:31:08.203Z,0.00
2019-04-04T03:32:13.384Z,0.00
2019-04-04T03:33:08.198Z,0.00
2019-04-04T03:34:11.026Z,0.00
2019-04-04T03:35:08.154Z,0.00
2019-04-04T03:36:08.136Z,0.00
2019-04-04T03:37:12.132Z,0.00
2019-04-04T03:38:08.079Z,0.00
2019-04-04T03:39:08.050Z,0.00
2019-04-04T03:40:08.028Z,0.00
2019-04-04T03:41:08.009Z,0.00
2019-04-04T03:42:08.335Z,0.00
2019-04-04T03:43:07.969Z,0.00
2019-04-04T03:44:07.949Z,0.00
2019-04-04T03:45:07.929Z,0.00
2019-04-04T03:46:07.910Z,0.00
2019-04-04T03:47:10.400Z,0.00
2019-04-04T03:48:07.867Z,0.00
2019-04-04T03:49:07.854Z,0.00
2019-04-04T03:50:07.827Z,0.00
2019-04-04T03:51:07.802Z,0.00
2019-04-04T03:52:11.224Z,0.00
2019-04-04T03:53:07.863Z,0.00
2019-04-04T03:54:07.744Z,0.00
2019-04-04T03:55:07.725Z,0.00
2019-04-04T03:56:07.707Z,0.00
2019-04-04T03:57:10.951Z,0.00
2019-04-04T03:58:07.668Z,0.00
2019-04-04T03:59:07.659Z,0.00
2019-04-04T04:00:07.729Z,0.00
2019-04-04T04:01:11.945Z,0.00
2019-04-04T04:02:07.591Z,0.00
2019-04-04T04:03:07.566Z,0.00
2019-04-04T04:04:07.543Z,4.00
2019-04-04T04:05:07.530Z,4.00
2019-04-04T04:06:08.873Z,0.00
2019-04-04T04:07:07.485Z,0.00
2019-04-04T04:08:07.475Z,4.00
2019-04-04T04:09:07.448Z,4.00
2019-04-04T04:10:07.423Z,4.00
2019-04-04T04:11:07.407Z,4.00
2019-04-04T04:12:10.170Z,4.00
2019-04-04T04:13:07.378Z,8.00
2019-04-04T04:14:07.349Z,8.00
2019-04-04T04:15:07.328Z,8.00
2019-04-04T04:16:07.306Z,8.00
2019-04-04T04:17:11.273Z,12.00
2019-04-04T04:18:07.277Z,12.00
2019-04-04T04:19:07.258Z,16.00
2019-04-04T04:20:07.232Z,20.00
2019-04-04T04:21:10.801Z,24.00
2019-04-04T04:22:07.183Z,28.00
2019-04-04T04:23:07.161Z,28.00
2019-04-04T04:24:07.148Z,36.00
2019-04-04T04:25:07.124Z,44.00
2019-04-04T04:26:09.448Z,48.00
2019-04-04T04:27:07.089Z,52.00
2019-04-04T04:28:07.068Z,60.00
2019-04-04T04:29:07.052Z,68.00
2019-04-04T04:30:07.674Z,76.00
2019-04-04T04:31:07.016Z,84.00
2019-04-04T04:32:06.983Z,92.00
2019-04-04T04:33:06.964Z,104.00
2019-04-04T04:34:06.948Z,112.00
2019-04-04T04:35:08.584Z,124.00
2019-04-04T04:36:09.743Z,136.00
2019-04-04T04:37:06.910Z,152.00
2019-04-04T04:38:06.861Z,164.00
2019-04-04T04:39:06.851Z,176.00
2019-04-04T04:40:06.827Z,192.00
2019-04-04T04:41:06.808Z,208.00
2019-04-04T04:42:06.782Z,224.00
2019-04-04T04:43:06.773Z,240.00
2019-04-04T04:44:06.822Z,256.00
2019-04-04T04:45:10.874Z,272.00
2019-04-04T04:46:06.716Z,292.00
2019-04-04T04:47:06.678Z,312.00
2019-04-04T04:48:06.666Z,332.00
2019-04-04T04:49:06.652Z,352.00
2019-04-04T04:50:09.638Z,372.00
2019-04-04T04:51:06.602Z,392.00
2019-04-04T04:52:06.576Z,420.00
2019-04-04T04:53:06.560Z,440.00
2019-04-04T04:54:06.540Z,464.00
2019-04-04T04:55:06.540Z,484.00
2019-04-04T04:56:06.498Z,508.00
2019-04-04T04:57:06.475Z,532.00
2019-04-04T04:58:09.968Z,556.00
2019-04-04T04:59:06.445Z,580.00
2019-04-04T05:00:06.412Z,608.00
2019-04-04T05:01:06.396Z,632.00
2019-04-04T05:02:06.377Z,660.00
2019-04-04T05:03:06.354Z,684.00
2019-04-04T05:04:06.337Z,708.00
2019-04-04T05:05:06.316Z,736.00
2019-04-04T05:06:06.300Z,764.00
2019-04-04T05:07:07.433Z,792.00
2019-04-04T05:08:09.473Z,816.00
2019-04-04T05:09:06.235Z,844.00
2019-04-04T05:10:06.214Z,876.00
2019-04-04T05:11:06.194Z,900.00
2019-04-04T05:12:06.176Z,928.00
2019-04-04T05:13:06.161Z,952.00
2019-04-04T05:14:06.131Z,976.00
2019-04-04T05:15:06.106Z,1004.00
2019-04-04T05:16:08.902Z,1028.00
2019-04-04T05:17:06.068Z,1056.00
2019-04-04T05:18:06.051Z,1084.00
2019-04-04T05:19:06.029Z,1112.00
2019-04-04T05:20:06.012Z,1136.00
2019-04-04T05:21:06.005Z,1164.00
2019-04-04T05:22:07.141Z,1192.00
2019-04-04T05:23:05.948Z,1216.00
2019-04-04T05:24:05.931Z,1240.00
2019-04-04T05:25:08.255Z,1264.00
2019-04-04T05:26:05.886Z,1288.00
2019-04-04T05:27:06.698Z,1308.00
2019-04-04T05:28:06.345Z,1332.00
2019-04-04T05:29:05.839Z,1360.00
2019-04-04T05:30:08.336Z,1388.00
2019-04-04T05:31:05.788Z,1416.00
2019-04-04T05:32:05.764Z,1440.00
2019-04-04T05:33:05.742Z,1472.00
2019-04-04T05:34:05.724Z,1492.00
2019-04-04T05:35:05.704Z,1508.00
2019-04-04T05:36:06.058Z,1532.00
2019-04-04T05:37:07.359Z,1556.00
2019-04-04T05:38:07.733Z,1576.00
2019-04-04T05:39:05.623Z,1604.00
2019-04-04T05:40:05.627Z,1628.00
2019-04-04T05:41:05.596Z,1656.00
2019-04-04T05:42:05.565Z,1680.00
2019-04-04T05:43:05.548Z,1704.00
2019-04-04T05:44:09.044Z,1736.00
2019-04-04T05:45:05.510Z,1756.00
2019-04-04T05:46:05.507Z,1784.00
2019-04-04T05:47:05.463Z,1804.00
2019-04-04T05:48:05.441Z,1824.00
2019-04-04T05:49:07.798Z,1848.00
2019-04-04T05:50:05.401Z,1872.00
2019-04-04T05:51:05.699Z,1896.00
2019-04-04T05:53:52.654Z,1968.00
2019-04-04T06:04:42.460Z,2280.00
2019-04-04T06:05:42.444Z,2312.00
2019-04-04T06:06:42.435Z,2344.00
2019-04-04T06:07:42.422Z,2372.00
2019-04-04T06:08:43.333Z,2408.00
2019-04-04T06:09:46.095Z,2440.00
2019-04-04T06:10:42.334Z,2480.00
2019-04-04T06:11:42.314Z,2516.00
2019-04-04T06:12:42.292Z,2548.00
2019-04-04T06:13:42.269Z,2580.00
2019-04-04T06:14:42.255Z,2600.00
2019-04-04T06:15:42.238Z,2632.00
2019-04-04T06:16:42.213Z,2672.00
2019-04-04T06:17:42.195Z,2700.00
2019-04-04T06:18:42.969Z,2728.00
2019-04-04T06:19:44.417Z,2760.00
2019-04-04T06:20:42.134Z,2792.00
2019-04-04T06:21:42.127Z,2832.00
2019-04-04T06:22:42.095Z,2880.00
2019-04-04T06:23:42.071Z,2924.00
2019-04-04T06:24:42.055Z,2976.00
2019-04-04T06:25:42.051Z,3040.00
2019-04-04T06:26:42.016Z,3092.00
2019-04-04T06:27:41.993Z,3136.00
2019-04-04T06:28:44.207Z,3172.00
2019-04-04T06:29:41.957Z,3212.00
2019-04-04T06:30:43.433Z,3268.00
2019-04-04T06:31:41.920Z,3356.00
2019-04-04T06:32:41.902Z,3480.00
2019-04-04T06:33:41.879Z,3588.00
2019-04-04T06:34:42.181Z,3676.00
2019-04-04T06:35:41.841Z,3760.00
2019-04-04T06:36:41.822Z,3824.00
2019-04-04T06:37:41.799Z,3900.00
2019-04-04T06:38:44.404Z,3976.00
2019-04-04T06:39:41.769Z,4060.00
2019-04-04T06:40:41.749Z,4164.00
2019-04-04T06:41:41.736Z,4872.00
2019-04-04T06:42:41.710Z,8240.00
2019-04-04T06:43:42.074Z,11172.00
2019-04-04T06:44:43.787Z,10804.00
2019-04-04T06:45:41.661Z,10728.00
2019-04-04T06:46:41.639Z,13028.00
2019-04-04T06:47:41.620Z,17088.00
2019-04-04T06:48:41.593Z,18016.00
2019-04-04T06:49:41.572Z,18752.00
2019-04-04T06:50:42.965Z,19232.00
2019-04-04T06:51:41.541Z,20960.00
2019-04-04T06:52:41.520Z,20576.00
2019-04-04T06:53:41.502Z,20448.00
2019-04-04T06:54:41.490Z,21088.00
2019-04-04T06:55:41.477Z,21696.00
2019-04-04T06:56:41.452Z,22144.00
2019-04-04T06:57:41.435Z,22624.00
2019-04-04T06:58:41.421Z,22432.00
2019-04-04T06:59:43.266Z,21792.00
2019-04-04T07:00:42.201Z,23520.00
2019-04-04T07:01:41.363Z,24416.00
2019-04-04T07:02:41.348Z,25184.00
2019-04-04T07:03:41.336Z,25184.00
2019-04-04T07:04:44.952Z,25088.00
2019-04-04T07:05:41.301Z,25184.00
2019-04-04T07:06:41.961Z,24384.00
2019-04-04T07:07:43.884Z,14944.00
2019-04-04T07:08:41.252Z,7224.00
2019-04-04T07:09:41.242Z,7044.00
2019-04-04T07:10:41.224Z,7024.00
2019-04-04T07:11:41.209Z,7016.00
2019-04-04T07:12:41.193Z,6988.00
2019-04-04T07:13:42.606Z,6932.00
2019-04-04T07:14:46.020Z,6884.00
2019-04-04T07:15:46.559Z,6812.00
2019-04-04T07:16:41.170Z,6728.00
2019-04-04T07:17:41.282Z,6652.00
2019-04-04T07:18:43.062Z,6580.00
2019-04-04T07:19:41.093Z,6504.00
2019-04-04T07:20:41.074Z,6456.00
2019-04-04T07:21:41.060Z,6424.00
2019-04-04T07:22:41.043Z,6412.00
2019-04-04T07:23:41.977Z,6404.00
2019-04-04T07:24:41.021Z,6392.00
2019-04-04T07:25:40.999Z,6436.00
2019-04-04T07:26:40.989Z,6480.00
2019-04-04T07:27:40.976Z,6592.00
2019-04-04T07:28:40.965Z,8616.00
2019-04-04T07:29:40.942Z,13768.00
2019-04-04T07:30:40.933Z,17536.00
2019-04-04T07:31:40.916Z,18816.00
2019-04-04T07:32:41.693Z,19744.00
2019-04-04T07:33:42.670Z,19040.00
2019-04-04T07:34:40.869Z,12616.00
2019-04-04T07:35:40.853Z,7704.00
2019-04-04T07:36:40.845Z,7392.00
2019-04-04T07:37:40.825Z,7360.00
2019-04-04T07:38:40.810Z,7416.00
2019-04-04T07:39:40.795Z,7468.00
2019-04-04T07:40:40.788Z,7564.00
2019-04-04T07:41:44.757Z,7688.00
2019-04-04T07:42:40.753Z,7816.00
2019-04-04T07:43:40.737Z,7980.00
2019-04-04T07:44:40.723Z,8176.00
2019-04-04T07:45:40.713Z,8392.00
2019-04-04T07:46:41.301Z,13032.00
2019-04-04T07:47:40.683Z,30944.00
2019-04-04T07:48:40.668Z,35776.00
2019-04-04T07:49:40.661Z,34208.00
2019-04-04T07:50:40.640Z,39360.00
2019-04-04T07:51:40.662Z,39104.00
2019-04-04T07:52:40.618Z,38720.00
2019-04-04T07:53:40.600Z,34048.00
2019-04-04T07:54:40.586Z,32352.00
2019-04-04T07:55:42.188Z,26304.00
2019-04-04T07:56:40.561Z,28480.00
2019-04-04T07:57:40.548Z,28768.00
2019-04-04T07:58:40.537Z,29184.00
2019-04-04T07:59:40.526Z,36480.00
2019-04-04T08:00:40.513Z,32256.00
2019-04-04T08:01:50.643Z,36064.00
2019-04-04T08:02:40.490Z,36704.00
2019-04-04T08:03:40.475Z,34368.00
2019-04-04T08:04:40.461Z,23648.00
2019-04-04T08:05:40.453Z,34688.00
2019-04-04T08:06:40.450Z,38720.00
2019-04-04T08:07:40.426Z,37088.00
2019-04-04T08:08:40.412Z,28736.00
2019-04-04T08:09:40.404Z,30144.00
2019-04-04T08:10:40.399Z,30016.00
2019-04-04T08:11:40.384Z,42016.00
2019-04-04T08:12:40.370Z,43168.00
2019-04-04T08:13:40.361Z,33632.00
2019-04-04T08:14:40.347Z,42304.00
2019-04-04T08:15:40.342Z,39936.00
2019-04-04T08:16:40.325Z,36160.00
2019-04-04T08:17:40.314Z,33472.00
2019-04-04T08:18:40.303Z,33408.00
2019-04-04T08:19:40.297Z,31136.00
2019-04-04T08:20:40.280Z,16672.00
2019-04-04T08:21:40.271Z,12860.00
2019-04-04T08:22:40.264Z,13048.00
2019-04-04T08:23:40.249Z,13952.00
2019-04-04T08:24:40.239Z,14408.00
2019-04-04T08:25:40.225Z,14804.00
2019-04-04T08:26:40.221Z,15044.00
2019-04-04T08:27:40.208Z,14660.00
2019-04-04T08:28:40.199Z,12540.00
2019-04-04T08:29:40.187Z,12012.00
2019-04-04T08:30:40.178Z,14016.00
2019-04-04T08:31:40.169Z,13132.00
2019-04-04T08:32:40.165Z,11788.00
2019-04-04T08:33:40.403Z,12524.00
2019-04-04T08:34:40.136Z,12948.00
2019-04-04T08:35:40.123Z,11936.00
2019-04-04T08:36:40.118Z,12376.00
2019-04-04T08:37:40.105Z,13036.00
2019-04-04T08:38:40.094Z,12852.00
2019-04-04T08:39:40.088Z,12504.00
2019-04-04T08:40:40.074Z,12928.00
2019-04-04T08:41:40.069Z,11812.00
2019-04-04T08:42:40.067Z,12996.00
2019-04-04T08:43:40.044Z,12960.00
2019-04-04T08:44:40.038Z,12864.00
2019-04-04T08:45:40.032Z,12748.00
2019-04-04T08:46:40.017Z,12620.00
2019-04-04T08:47:40.007Z,12520.00
2019-04-04T08:48:39.998Z,12368.00
2019-04-04T08:49:39.985Z,12232.00
2019-04-04T08:50:39.990Z,12104.00
2019-04-04T08:51:39.972Z,12016.00
2019-04-04T08:52:39.960Z,11944.00
2019-04-04T08:53:40.595Z,11852.00
2019-04-04T08:54:39.945Z,11788.00
2019-04-04T08:55:39.933Z,11752.00
2019-04-04T08:56:39.927Z,11664.00
2019-04-04T08:57:39.920Z,11680.00
2019-04-04T08:58:39.906Z,11736.00
2019-04-04T08:59:39.896Z,11688.00
2019-04-04T09:00:39.888Z,11664.00
2019-04-04T09:01:39.879Z,11664.00
2019-04-04T09:02:39.868Z,11704.00
2019-04-04T09:03:39.871Z,11760.00
2019-04-04T09:04:39.854Z,11816.00
2019-04-04T09:05:39.845Z,11800.00
2019-04-04T09:06:39.835Z,11784.00
2019-04-04T09:07:39.834Z,11808.00
2019-04-04T09:08:39.882Z,11900.00
2019-04-04T09:09:39.898Z,11960.00
2019-04-04T09:10:39.800Z,12008.00
2019-04-04T09:11:39.790Z,12100.00
2019-04-04T09:12:39.788Z,12156.00
2019-04-04T09:13:39.778Z,12180.00
2019-04-04T09:14:41.183Z,12148.00
2019-04-04T09:15:39.756Z,12132.00
2019-04-04T09:16:39.749Z,12164.00
2019-04-04T09:17:39.740Z,12280.00
2019-04-04T09:18:39.730Z,12388.00
2019-04-04T09:19:39.735Z,12424.00
2019-04-04T09:20:39.714Z,12472.00
2019-04-04T09:21:39.717Z,12568.00
2019-04-04T09:22:40.909Z,12660.00
2019-04-04T09:23:39.687Z,12776.00
2019-04-04T09:24:39.694Z,12828.00
2019-04-04T09:25:40.977Z,12892.00
2019-04-04T09:26:39.668Z,12884.00
2019-04-04T09:27:39.657Z,12968.00
2019-04-04T09:28:39.650Z,13012.00
2019-04-04T09:29:39.636Z,13084.00
2019-04-04T09:30:39.636Z,13200.00
2019-04-04T09:31:39.623Z,13276.00
2019-04-04T09:32:39.615Z,13400.00
2019-04-04T09:33:39.608Z,13392.00
2019-04-04T09:34:39.603Z,13508.00
2019-04-04T09:35:39.594Z,13556.00
2019-04-04T09:36:39.587Z,13728.00
2019-04-04T09:37:39.572Z,13852.00
2019-04-04T09:38:39.568Z,14072.00
2019-04-04T09:39:39.560Z,14184.00
2019-04-04T09:40:39.548Z,14264.00
2019-04-04T09:41:39.541Z,14348.00
2019-04-04T09:42:39.536Z,14604.00
2019-04-04T09:43:39.526Z,14940.00
2019-04-04T09:44:39.514Z,26848.00
2019-04-04T09:45:39.512Z,58144.00
2019-04-04T09:46:39.500Z,63456.00
2019-04-04T09:47:39.499Z,59424.00
2019-04-04T09:48:39.492Z,59936.00
2019-04-04T09:49:39.480Z,71296.00
2019-04-04T09:50:39.472Z,72288.00
2019-04-04T09:51:39.467Z,66016.00
2019-04-04T09:52:39.459Z,60448.00
2019-04-04T09:53:52.389Z,59904.00
2019-04-04T09:54:39.448Z,63136.00
2019-04-04T09:55:39.443Z,70592.00
2019-04-04T09:56:39.435Z,76928.00
2019-04-04T09:57:39.425Z,77888.00
2019-04-04T09:58:39.423Z,74176.00
2019-04-04T09:59:39.415Z,71296.00
2019-04-04T10:00:39.407Z,69440.00
2019-04-04T10:01:39.403Z,68672.00
2019-04-04T10:02:39.392Z,67424.00
2019-04-04T10:03:39.391Z,68224.00
2019-04-04T10:04:39.386Z,68928.00
2019-04-04T10:05:39.380Z,63552.00
2019-04-04T10:06:39.373Z,62176.00
2019-04-04T10:07:39.374Z,62720.00
2019-04-04T10:08:39.362Z,65408.00
2019-04-04T10:09:39.505Z,64896.00
2019-04-04T10:10:39.355Z,68928.00
2019-04-04T10:11:39.351Z,69792.00
2019-04-04T10:12:39.342Z,61920.00
2019-04-04T10:13:39.365Z,68736.00
2019-04-04T10:14:39.330Z,72448.00
2019-04-04T10:15:39.326Z,74016.00
2019-04-04T10:16:39.324Z,78816.00
2019-04-04T10:17:39.330Z,85184.00
2019-04-04T10:18:39.312Z,86432.00
2019-04-04T10:19:39.308Z,84800.00
2019-04-04T10:20:39.306Z,83840.00
2019-04-04T10:21:39.311Z,80864.00
2019-04-04T10:22:39.306Z,79008.00
2019-04-04T10:23:39.303Z,78816.00
2019-04-04T10:24:39.291Z,80448.00
2019-04-04T10:25:39.336Z,84352.00
2019-04-04T10:26:39.285Z,86528.00
2019-04-04T10:27:39.288Z,84256.00
2019-04-04T10:28:39.278Z,79040.00
2019-04-04T10:29:39.273Z,75008.00
2019-04-04T10:30:39.269Z,68736.00
2019-04-04T10:31:39.266Z,71392.00
2019-04-04T10:32:39.304Z,72736.00
2019-04-04T10:33:42.098Z,77792.00
2019-04-04T10:34:39.264Z,75584.00
2019-04-04T10:35:39.253Z,67552.00
2019-04-04T10:36:39.254Z,70560.00
2019-04-04T10:37:39.250Z,61184.00
2019-04-04T10:38:39.245Z,47296.00
2019-04-04T10:39:39.243Z,66336.00
2019-04-04T10:40:39.240Z,57824.00
2019-04-04T10:41:39.233Z,74112.00
2019-04-04T10:42:39.231Z,83680.00
2019-04-04T10:43:39.227Z,97248.00
2019-04-04T10:44:39.229Z,100992.00
2019-04-04T10:45:39.218Z,92448.00
2019-04-04T10:46:39.220Z,82176.00
2019-04-04T10:47:39.215Z,81760.00
2019-04-04T10:48:39.212Z,85184.00
2019-04-04T10:49:39.218Z,85952.00
2019-04-04T10:50:39.209Z,91648.00
2019-04-04T10:51:39.204Z,86240.00
2019-04-04T10:52:39.198Z,86368.00
2019-04-04T10:53:39.202Z,87008.00
2019-04-04T10:54:39.197Z,87552.00
2019-04-04T10:55:39.199Z,89664.00
2019-04-04T10:56:39.193Z,85888.00
2019-04-04T10:57:39.190Z,86400.00
2019-04-04T10:58:39.192Z,91296.00
2019-04-04T10:59:39.181Z,92896.00
2019-04-04T11:00:39.182Z,90784.00
2019-04-04T11:01:39.179Z,86560.00
2019-04-04T11:02:39.179Z,88864.00
2019-04-04T11:03:39.180Z,88320.00
2019-04-04T11:04:39.172Z,87712.00
2019-04-04T11:05:39.170Z,90624.00
2019-04-04T11:06:39.171Z,90112.00
2019-04-04T11:07:39.167Z,87680.00
2019-04-04T11:08:39.171Z,91104.00
2019-04-04T11:09:42.089Z,93440.00
2019-04-04T11:10:39.169Z,93792.00
2019-04-04T11:11:39.163Z,92096.00
2019-04-04T11:12:39.162Z,90048.00
2019-04-04T11:13:39.162Z,86176.00
2019-04-04T11:14:39.158Z,88384.00
2019-04-04T11:15:39.155Z,93408.00
2019-04-04T11:16:39.160Z,90272.00
2019-04-04T11:17:39.154Z,87584.00
2019-04-04T11:18:39.154Z,89088.00
2019-04-04T11:19:39.151Z,88480.00
2019-04-04T11:20:39.157Z,88320.00
2019-04-04T11:21:39.151Z,78464.00
2019-04-04T11:22:39.149Z,72448.00
2019-04-04T11:23:39.143Z,78464.00
2019-04-04T11:24:39.146Z,78368.00
2019-04-04T11:25:39.141Z,75040.00
2019-04-04T11:26:39.146Z,72352.00
2019-04-04T11:27:39.142Z,72896.00
2019-04-04T11:28:39.135Z,69568.00
2019-04-04T11:29:39.140Z,79264.00
2019-04-04T11:30:39.134Z,79776.00
2019-04-04T11:31:39.134Z,78304.00
2019-04-04T11:32:39.137Z,79616.00
2019-04-04T11:33:39.131Z,80256.00
2019-04-04T11:34:39.127Z,76608.00
2019-04-04T11:35:39.132Z,77152.00
2019-04-04T11:36:39.126Z,78272.00
2019-04-04T11:37:39.127Z,80640.00
2019-04-04T11:38:39.122Z,87296.00
2019-04-04T11:39:39.124Z,86720.00
2019-04-04T11:40:39.128Z,84736.00
2019-04-04T11:41:39.122Z,83840.00
2019-04-04T11:42:39.169Z,82784.00
2019-04-04T11:43:39.117Z,83520.00
2019-04-04T11:44:39.119Z,85696.00
2019-04-04T11:45:39.117Z,89184.00
2019-04-04T11:46:39.115Z,90432.00
2019-04-04T11:47:39.111Z,80256.00
2019-04-04T11:48:39.112Z,69600.00
2019-04-04T11:49:39.107Z,66592.00
2019-04-04T11:50:39.945Z,80256.00
2019-04-04T11:51:39.113Z,85568.00
2019-04-04T11:52:39.107Z,85344.00
2019-04-04T11:53:39.109Z,85408.00
2019-04-04T11:54:39.101Z,86240.00
2019-04-04T11:55:39.104Z,84544.00
2019-04-04T11:56:39.104Z,81696.00
2019-04-04T11:57:39.101Z,77792.00
2019-04-04T11:58:39.100Z,81120.00
2019-04-04T11:59:39.103Z,90208.00
2019-04-04T12:00:39.098Z,92416.00
2019-04-04T12:01:39.095Z,87488.00
2019-04-04T12:02:39.092Z,80096.00
2019-04-04T12:03:39.095Z,74560.00
2019-04-04T12:04:39.092Z,74048.00
2019-04-04T12:05:39.089Z,75936.00
2019-04-04T12:06:39.086Z,76032.00
2019-04-04T12:07:39.100Z,73888.00
2019-04-04T12:08:39.107Z,75424.00
2019-04-04T12:09:39.089Z,79264.00
2019-04-04T12:10:39.087Z,74368.00
2019-04-04T12:11:39.086Z,76800.00
2019-04-04T12:12:39.085Z,78816.00
2019-04-04T12:13:39.089Z,72512.00
2019-04-04T12:14:39.080Z,70752.00
2019-04-04T12:15:39.085Z,71136.00
2019-04-04T12:16:39.082Z,61920.00
2019-04-04T12:17:39.082Z,62176.00
2019-04-04T12:20:22.364Z,73888.00
2019-04-04T12:21:22.364Z,68928.00
2019-04-04T12:22:22.369Z,80032.00
2019-04-04T12:23:22.367Z,79968.00
2019-04-04T12:24:22.365Z,80800.00
2019-04-04T12:25:22.364Z,82720.00
2019-04-04T12:26:22.363Z,81920.00
2019-04-04T12:27:22.364Z,76640.00
2019-04-04T12:28:22.359Z,75072.00
2019-04-04T12:29:22.357Z,74464.00
2019-04-04T12:30:22.363Z,68640.00
2019-04-04T12:31:22.358Z,76672.00
2019-04-04T12:32:22.354Z,81600.00
2019-04-04T12:33:22.348Z,66240.00
2019-04-04T12:34:22.351Z,61664.00
2019-04-04T12:35:22.350Z,61696.00